Time;durP1;ratioP1;P1;durP2;ratioP2;P2;SDS_P1;SDS_P2;PMS_P1;PMS_P2;Temp;Humidity;BMP_temperature;BMP_pressure;BME280_temperature;BME280_humidity;BME280_pressure;Samples;Min_cycle;Max_cycle;Signal;HPM_P1;HPM_P2
2023/12/03 00:01:54;;;;;;;;;;;;;;;-0.98;63.10;98202.31;4965171;28;20272;-80
2023/12/03 00:04:45;;;;;;;;;;;;;;;-1.09;63.24;98207.41;4963300;28;20356;-81
2023/12/03 00:07:38;;;;;;;;;;;;;;;-1.40;63.46;98220.97;4964580;28;19918;-78
2023/12/03 00:10:26;;;;;;;;;;;;;;;-1.27;63.49;98220.81;4969827;28;20368;-78
2023/12/03 00:13:15;;;;;;;;;;;;;;;-1.30;64.09;98229.25;4971176;28;19918;-79
2023/12/03 00:16:06;;;;;;;;;;;;;;;-1.36;64.26;98230.97;4972673;28;19930;-79
2023/12/03 00:18:54;;;;;;;;;;;;;;;-1.35;63.44;98234.44;4971893;28;20339;-80
2023/12/03 00:21:44;;;;;;;;;;;;;;;-1.43;64.25;98234.78;4973823;28;20284;-81
2023/12/03 00:24:34;;;;;;;;;;;;;;;-1.38;64.86;98235.72;4972299;28;19926;-79
2023/12/03 00:27:23;;;;;;;;;;;;;;;-1.30;63.95;98231.91;4973791;28;20618;-79
2023/12/03 00:30:13;;;;;;;;;;;;;;;-1.28;63.53;98231.69;4971943;28;19918;-80
2023/12/03 00:33:02;;;;;;;;;;;;;;;-1.18;63.44;98240.75;4972339;28;19925;-80
2023/12/03 00:35:49;;;;;;;;;;;;;;;-1.18;63.08;98240.75;4971025;28;19938;-81
2023/12/03 00:38:43;;;;;;;;;;;;;;;-1.18;63.49;98245.28;4972840;28;20260;-81
2023/12/03 00:41:33;;;;;;;;;;;;;;;-1.00;62.82;98247.88;4972628;28;19918;-79
2023/12/03 00:44:23;;;;;;;;;;;;;;;-1.16;62.99;98253.88;4973813;28;19930;-80
2023/12/03 00:47:15;;;;;;;;;;;;;;;-1.13;62.71;98254.22;4967755;28;19930;-79
2023/12/03 00:50:04;;;;;;;;;;;;;;;-1.11;63.17;98268.16;4955014;28;19919;-80
2023/12/03 00:52:53;;;;;;;;;;;;;;;-1.34;64.00;98268.84;4971757;28;19997;-79
2023/12/03 00:55:41;;;;;;;;;;;;;;;-1.41;63.49;98272.66;4965358;28;20323;-81
2023/12/03 00:58:31;;;;;;;;;;;;;;;-1.44;64.17;98273.09;4971088;28;20466;-80
2023/12/03 01:01:20;;;;;;;;;;;;;;;-1.19;63.62;98279.13;4971577;28;19933;-80
2023/12/03 01:04:09;;;;;;;;;;;;;;;-1.07;62.85;98279.97;4973294;28;19992;-79
2023/12/03 01:06:57;;;;;;;;;;;;;;;-1.40;63.40;98291.09;4971358;28;19917;-80
2023/12/03 01:09:47;;;;;;;;;;;;;;;-1.04;62.02;98293.91;4956644;28;19937;-80
2023/12/03 01:12:35;;;;;;;;;;;;;;;-1.09;62.08;98299.91;4968330;28;19925;-78
2023/12/03 01:15:25;;;;;;;;;;;;;;;-1.54;63.44;98299.50;4972255;28;19926;-80
2023/12/03 01:18:14;;;;;;;;;;;;;;;-1.16;62.65;98299.19;4973060;28;19918;-79
2023/12/03 01:21:03;;;;;;;;;;;;;;;-1.18;62.65;98306.59;4967754;28;19941;-80
2023/12/03 01:23:52;;;;;;;;;;;;;;;-1.01;62.72;98302.28;4971906;28;19918;-81
2023/12/03 01:26:41;;;;;;;;;;;;;;;-1.06;62.09;98302.94;4970812;28;19937;-82
2023/12/03 01:29:29;;;;;;;;;;;;;;;-1.09;62.23;98307.91;4969064;28;20470;-80
2023/12/03 01:32:18;;;;;;;;;;;;;;;-1.23;62.62;98311.78;4971928;28;20327;-81
2023/12/03 01:35:07;;;;;;;;;;;;;;;-1.16;62.94;98313.34;4970741;28;19918;-81
2023/12/03 01:37:55;;;;;;;;;;;;;;;-1.33;62.42;98309.69;4971810;28;20364;-81
2023/12/03 01:40:51;;;;;;;;;;;;;;;-1.08;61.81;98318.34;4970668;28;19926;-79
2023/12/03 01:43:47;;;;;;;;;;;;;;;-1.21;63.16;98321.19;4964668;28;20364;-81
2023/12/03 01:46:35;;;;;;;;;;;;;;;-1.10;62.31;98328.44;4970302;28;19918;-79
2023/12/03 01:49:27;;;;;;;;;;;;;;;-1.17;62.12;98324.19;4970984;28;19925;-80
2023/12/03 01:52:15;;;;;;;;;;;;;;;-1.45;63.27;98338.09;4970565;28;20016;-81
2023/12/03 01:55:04;;;;;;;;;;;;;;;-1.28;62.80;98336.44;4969335;28;20035;-80
2023/12/03 01:57:54;;;;;;;;;;;;;;;-1.15;62.43;98333.63;4970217;28;19929;-80
2023/12/03 02:00:44;;;;;;;;;;;;;;;-1.11;63.09;98337.47;4965513;28;20378;-81
2023/12/03 02:03:38;;;;;;;;;;;;;;;-1.10;63.37;98325.75;4969881;28;20001;-81
2023/12/03 02:06:31;;;;;;;;;;;;;;;-0.88;62.78;98331.41;4967196;28;19952;-81
2023/12/03 02:09:20;;;;;;;;;;;;;;;-0.74;62.67;98325.88;4969016;28;19925;-81
2023/12/03 02:12:08;;;;;;;;;;;;;;;-0.68;62.09;98327.63;4964481;28;19918;-80
2023/12/03 02:14:56;;;;;;;;;;;;;;;-0.58;61.56;98327.91;4967686;28;19961;-81
2023/12/03 02:17:45;;;;;;;;;;;;;;;-0.50;61.03;98335.56;4961987;28;19926;-80
2023/12/03 02:20:35;;;;;;;;;;;;;;;-0.92;61.65;98332.06;4967685;28;20284;-79
2023/12/03 02:23:28;;;;;;;;;;;;;;;-1.04;62.65;98333.91;4969658;28;20363;-80
2023/12/03 02:26:16;;;;;;;;;;;;;;;-0.69;61.87;98331.31;4967359;28;19918;-81
2023/12/03 02:29:05;;;;;;;;;;;;;;;-0.67;62.28;98337.25;4967060;28;20672;-82
2023/12/03 02:31:53;;;;;;;;;;;;;;;-0.71;62.13;98342.22;4971696;28;19922;-83
2023/12/03 02:34:41;;;;;;;;;;;;;;;-0.78;62.90;98341.53;4969486;28;19921;-80
2023/12/03 02:37:30;;;;;;;;;;;;;;;-0.95;63.16;98346.69;4964961;28;20275;-80
2023/12/03 02:40:19;;;;;;;;;;;;;;;-1.00;62.57;98338.56;4968779;28;19918;-81
2023/12/03 02:43:08;;;;;;;;;;;;;;;-1.14;62.78;98339.75;4969390;28;19926;-80
2023/12/03 02:45:56;;;;;;;;;;;;;;;-1.02;63.50;98343.28;4960995;28;20289;-79
2023/12/03 02:48:44;;;;;;;;;;;;;;;-1.23;64.07;98344.59;4955385;28;20288;-80
2023/12/03 02:51:38;;;;;;;;;;;;;;;-1.31;64.44;98350.22;4967664;28;19925;-81
2023/12/03 02:54:27;;;;;;;;;;;;;;;-0.87;63.29;98358.88;4968933;28;19930;-84
2023/12/03 02:57:16;;;;;;;;;;;;;;;-0.63;62.87;98352.59;4969255;28;20399;-80
2023/12/03 03:00:06;;;;;;;;;;;;;;;-1.29;64.05;98360.66;4967816;28;20271;-81
2023/12/03 03:02:54;;;;;;;;;;;;;;;-1.27;64.88;98364.75;4967726;28;19929;-81
2023/12/03 03:05:44;;;;;;;;;;;;;;;-1.24;64.38;98374.94;4964613;28;20460;-79
2023/12/03 03:08:32;;;;;;;;;;;;;;;-1.09;64.28;98370.03;4973169;28;19922;-80
2023/12/03 03:11:23;;;;;;;;;;;;;;;-0.66;63.52;98366.38;4969195;28;19928;-81
2023/12/03 03:14:13;;;;;;;;;;;;;;;-0.99;63.46;98358.84;4964287;28;20017;-79
2023/12/03 03:20:17;;;;;;;;;;;;;;;-0.89;63.33;98363.66;4964011;28;19922;-80
2023/12/03 03:23:05;;;;;;;;;;;;;;;-1.18;64.36;98358.06;4965728;28;19918;-80
2023/12/03 03:32:24;;;;;;;;;;;;;;;-1.43;64.96;98360.84;4967616;28;19928;-82
2023/12/03 03:35:13;;;;;;;;;;;;;;;-1.30;64.76;98370.50;4972434;28;19922;-80
2023/12/03 03:38:01;;;;;;;;;;;;;;;-1.49;65.10;98361.72;4966377;28;19928;-80
2023/12/03 03:41:15;;;;;;;;;;;;;;;-1.33;65.00;98377.13;4968006;28;20289;-80
2023/12/03 03:44:03;;;;;;;;;;;;;;;-1.28;64.15;98371.09;4971485;28;20061;-79
2023/12/03 03:53:19;;;;;;;;;;;;;;;-1.19;64.55;98388.41;4970753;28;19941;-81
2023/12/03 03:56:08;;;;;;;;;;;;;;;-1.31;64.75;98382.22;4957109;28;19918;-81
2023/12/03 03:58:56;;;;;;;;;;;;;;;-1.36;63.99;98384.75;4967600;28;19918;-83
2023/12/03 04:02:09;;;;;;;;;;;;;;;-1.40;65.13;98392.34;4967768;28;20372;-82
2023/12/03 04:05:22;;;;;;;;;;;;;;;-1.36;64.48;98388.22;4971637;28;19917;-81
2023/12/03 04:08:11;;;;;;;;;;;;;;;-1.12;64.66;98394.50;4968031;28;20012;-81
2023/12/03 04:11:03;;;;;;;;;;;;;;;-1.17;63.79;98396.19;4968483;28;19930;-83
2023/12/03 04:13:51;;;;;;;;;;;;;;;-0.98;63.72;98397.00;4964546;28;20261;-81
2023/12/03 04:17:04;;;;;;;;;;;;;;;-0.94;63.35;98395.50;4969543;28;19968;-80
2023/12/03 04:19:55;;;;;;;;;;;;;;;-0.68;62.76;98400.50;4969005;28;19922;-84
2023/12/03 04:25:57;;;;;;;;;;;;;;;-0.90;61.96;98402.84;4971823;28;20292;-83
2023/12/03 04:28:45;;;;;;;;;;;;;;;-1.12;62.22;98407.84;4965881;28;20414;-81
2023/12/03 04:32:22;;;;;;;;;;;;;;;-1.24;62.39;98401.59;4965720;28;19923;-82
2023/12/03 04:35:10;;;;;;;;;;;;;;;-1.47;62.99;98415.59;4971706;28;20275;-81
2023/12/03 04:38:51;;;;;;;;;;;;;;;-1.42;62.90;98420.28;4971109;28;19922;-83
2023/12/03 04:42:07;;;;;;;;;;;;;;;-1.41;63.13;98420.03;4968298;28;20061;-82
2023/12/03 04:44:58;;;;;;;;;;;;;;;-1.42;63.11;98418.44;4970992;28;19922;-81
2023/12/03 04:47:47;;;;;;;;;;;;;;;-1.50;63.33;98420.56;4971272;28;20017;-84
2023/12/03 04:50:35;;;;;;;;;;;;;;;-1.38;62.62;98416.13;4966723;28;19918;-85
2023/12/03 04:53:24;;;;;;;;;;;;;;;-1.21;62.01;98421.69;4960290;28;20001;-80
2023/12/03 04:59:28;;;;;;;;;;;;;;;-1.39;62.23;98420.63;4971770;28;19967;-82
2023/12/03 05:02:41;;;;;;;;;;;;;;;-1.31;61.83;98422.19;4960481;28;19917;-83
2023/12/03 05:05:29;;;;;;;;;;;;;;;-0.93;61.76;98424.63;4964826;28;19918;-83
2023/12/03 05:08:18;;;;;;;;;;;;;;;-0.79;60.64;98425.28;4967830;28;19918;-81
2023/12/03 05:11:07;;;;;;;;;;;;;;;-0.72;60.65;98415.31;4967109;28;19930;-84
2023/12/03 05:13:56;;;;;;;;;;;;;;;-0.60;60.43;98418.03;4969420;28;19922;-81
2023/12/03 05:17:09;;;;;;;;;;;;;;;-0.77;59.82;98409.84;4966911;28;19984;-80
2023/12/03 05:19:59;;;;;;;;;;;;;;;-0.73;60.08;98413.69;4967674;28;20005;-82
2023/12/03 05:22:47;;;;;;;;;;;;;;;-1.18;60.46;98416.72;4965591;28;19931;-81
2023/12/03 05:26:00;;;;;;;;;;;;;;;-0.82;60.10;98429.19;4967718;28;19922;-81
2023/12/03 05:29:13;;;;;;;;;;;;;;;-0.94;60.62;98432.84;4965273;28;19941;-81
2023/12/03 05:32:25;;;;;;;;;;;;;;;-1.12;60.78;98439.84;4971904;28;20504;-79
2023/12/03 05:42:09;;;;;;;;;;;;;;;-1.14;60.49;98452.56;4968572;28;20001;-81
2023/12/03 05:44:58;;;;;;;;;;;;;;;-1.02;60.59;98459.81;4969216;28;20299;-79
2023/12/03 05:51:04;;;;;;;;;;;;;;;-0.89;60.31;98473.00;4968925;28;19918;-82
2023/12/03 05:53:53;;;;;;;;;;;;;;;-0.89;59.59;98470.34;4967671;28;20001;-83
2023/12/03 05:56:41;;;;;;;;;;;;;;;-1.04;60.74;98472.56;4972968;28;20419;-82
2023/12/03 05:59:36;;;;;;;;;;;;;;;-1.08;60.45;98475.66;4970833;28;19924;-81
2023/12/03 06:06:28;;;;;;;;;;;;;;;-1.16;61.09;98489.31;4967556;28;19965;-78
2023/12/03 06:09:17;;;;;;;;;;;;;;;-1.17;61.28;98481.50;4962763;28;19955;-83
2023/12/03 06:12:06;;;;;;;;;;;;;;;-0.88;60.09;98486.09;4966773;28;20284;-80
2023/12/03 06:14:54;;;;;;;;;;;;;;;-1.02;60.41;98489.97;4968580;28;20426;-80
2023/12/03 06:20:56;;;;;;;;;;;;;;;-0.99;60.20;98497.53;4958913;28;19930;-85
2023/12/03 06:23:46;;;;;;;;;;;;;;;-1.08;60.43;98502.31;4970073;28;20356;-82
2023/12/03 06:26:35;;;;;;;;;;;;;;;-1.26;61.08;98502.31;4970500;28;19934;-83
2023/12/03 06:29:24;;;;;;;;;;;;;;;-1.32;61.78;98503.22;4966106;28;19925;-82
2023/12/03 06:32:13;;;;;;;;;;;;;;;-1.00;60.92;98509.22;4967752;28;19918;-81
2023/12/03 06:35:02;;;;;;;;;;;;;;;-0.99;60.13;98502.03;4968747;28;19919;-83
2023/12/03 06:37:51;;;;;;;;;;;;;;;-1.04;60.98;98504.56;4971654;28;19964;-83
2023/12/03 06:41:05;;;;;;;;;;;;;;;-0.80;60.28;98511.66;4968702;28;19937;-82
2023/12/03 06:43:55;;;;;;;;;;;;;;;-0.85;59.99;98508.88;4968939;28;19968;-85
2023/12/03 06:53:31;;;;;;;;;;;;;;;-0.87;60.21;98511.75;4966108;28;19949;-83
2023/12/03 06:56:45;;;;;;;;;;;;;;;-1.30;61.34;98522.44;4969644;28;19941;-84
2023/12/03 06:59:34;;;;;;;;;;;;;;;-1.32;61.30;98527.19;4971058;28;20300;-86
2023/12/03 07:05:35;;;;;;;;;;;;;;;-1.23;61.57;98527.72;4968385;28;19921;-81
2023/12/03 07:08:24;;;;;;;;;;;;;;;-0.99;60.55;98526.88;4968920;28;19930;-89
2023/12/03 07:11:15;;;;;;;;;;;;;;;-1.24;61.60;98540.22;4971559;28;19926;-87
2023/12/03 07:14:06;;;;;;;;;;;;;;;-1.20;60.89;98535.28;4963940;28;20466;-86
2023/12/03 07:20:09;;;;;;;;;;;;;;;-1.07;61.23;98546.63;4967673;28;19925;-81
2023/12/03 07:22:58;;;;;;;;;;;;;;;-1.46;62.19;98552.31;4968535;28;19922;-88
2023/12/03 07:25:46;;;;;;;;;;;;;;;-1.16;61.45;98547.16;4964486;28;19922;-87
2023/12/03 07:28:59;;;;;;;;;;;;;;;-1.40;61.38;98551.44;4964684;28;19941;-86
2023/12/03 07:32:13;;;;;;;;;;;;;;;-1.72;61.63;98550.69;4971948;28;19917;-89
2023/12/03 07:35:01;;;;;;;;;;;;;;;-1.85;63.15;98554.28;4971427;28;19945;-88
2023/12/03 07:37:50;;;;;;;;;;;;;;;-1.76;63.19;98552.16;4968603;28;19918;-87
2023/12/03 07:43:52;;;;;;;;;;;;;;;-1.25;61.83;98567.94;4968194;28;20372;-86
2023/12/03 07:47:05;;;;;;;;;;;;;;;-1.21;61.75;98563.00;4967116;28;19918;-82
2023/12/03 07:50:19;;;;;;;;;;;;;;;-1.47;62.84;98567.50;4970103;28;19982;-81
2023/12/03 07:53:57;;;;;;;;;;;;;;;-1.49;62.06;98566.06;4969488;28;19981;-84
2023/12/03 07:56:46;;;;;;;;;;;;;;;-1.19;61.35;98576.91;4966315;28;19922;-79
2023/12/03 07:59:34;;;;;;;;;;;;;;;-1.03;61.67;98583.53;4964876;28;20271;-79
2023/12/03 08:02:30;;;;;;;;;;;;;;;-1.25;61.59;98589.25;4964935;28;19924;-78
2023/12/03 08:05:18;;;;;;;;;;;;;;;-0.96;60.93;98582.44;4963218;28;19918;-80
2023/12/03 08:08:06;;;;;;;;;;;;;;;-1.16;61.89;98598.63;4968652;28;19929;-80
2023/12/03 08:10:56;;;;;;;;;;;;;;;-1.14;61.74;98599.19;4968635;28;19969;-79
2023/12/03 08:20:11;;;;;;;;;;;;;;;-1.60;61.28;98605.75;4965950;28;19938;-80
2023/12/03 08:22:59;;;;;;;;;;;;;;;-1.02;61.25;98599.28;4961441;28;20104;-82
2023/12/03 08:25:47;;;;;;;;;;;;;;;-0.99;61.44;98603.41;4965015;28;19925;-81
2023/12/03 08:29:01;;;;;;;;;;;;;;;-1.09;60.77;98603.88;4958747;28;19922;-79
2023/12/03 08:32:20;;;;;;;;;;;;;;;-1.04;60.77;98595.22;4967626;28;20384;-80
2023/12/03 08:35:09;;;;;;;;;;;;;;;-1.00;61.18;98602.56;4968517;28;19918;-81
2023/12/03 08:37:58;;;;;;;;;;;;;;;-1.02;60.24;98603.81;4963909;28;19930;-79
2023/12/03 08:43:59;;;;;;;;;;;;;;;-0.72;60.77;98609.28;4968689;28;19925;-78
2023/12/03 08:47:12;;;;;;;;;;;;;;;-0.42;60.14;98612.03;4973828;28;19926;-80
2023/12/03 08:50:27;;;;;;;;;;;;;;;-0.73;59.98;98611.13;4969860;28;20261;-79
2023/12/03 08:53:18;;;;;;;;;;;;;;;-0.50;59.69;98621.16;4965032;28;19919;-78
2023/12/03 08:59:29;;;;;;;;;;;;;;;-0.37;59.70;98626.34;4968765;28;19937;-81
2023/12/03 09:02:43;;;;;;;;;;;;;;;-0.26;59.46;98627.44;4972310;28;20020;-80
2023/12/03 09:05:56;;;;;;;;;;;;;;;-0.49;60.24;98632.63;4964605;28;19918;-78
2023/12/03 09:08:47;;;;;;;;;;;;;;;-0.92;59.92;98628.13;4973577;28;19941;-80
2023/12/03 09:11:36;;;;;;;;;;;;;;;-0.69;60.03;98635.50;4967844;28;19918;-78
2023/12/03 09:14:26;;;;;;;;;;;;;;;-0.83;60.94;98643.66;4967857;28;19937;-80
2023/12/03 09:17:14;;;;;;;;;;;;;;;-0.94;61.13;98633.69;4952263;28;19925;-78
2023/12/03 09:20:02;;;;;;;;;;;;;;;-0.93;60.32;98639.84;4967934;28;20399;-79
2023/12/03 09:22:50;;;;;;;;;;;;;;;-0.71;60.49;98645.59;4959357;28;19925;-78
2023/12/03 09:25:40;;;;;;;;;;;;;;;-0.77;60.25;98646.47;4955357;28;20364;-79
2023/12/03 09:28:54;;;;;;;;;;;;;;;-0.90;60.46;98652.75;4967394;28;19922;-79
2023/12/03 09:32:07;;;;;;;;;;;;;;;-0.54;60.37;98652.78;4969732;28;19922;-80
2023/12/03 09:34:56;;;;;;;;;;;;;;;-0.36;60.16;98651.19;4962022;28;19917;-77
2023/12/03 09:37:44;;;;;;;;;;;;;;;-0.21;59.01;98651.63;4969444;28;20415;-79
2023/12/03 09:40:33;;;;;;;;;;;;;;;-0.44;59.20;98651.47;4971920;28;19918;-80
2023/12/03 09:43:22;;;;;;;;;;;;;;;-0.33;58.74;98648.06;4971389;28;19918;-78
2023/12/03 09:46:12;;;;;;;;;;;;;;;-0.28;58.86;98640.19;4963764;28;19933;-79
2023/12/03 09:49:01;;;;;;;;;;;;;;;-0.49;58.95;98643.31;4971129;28;19918;-78
2023/12/03 09:51:49;;;;;;;;;;;;;;;-0.54;58.82;98643.97;4954416;28;20364;-78
2023/12/03 09:54:39;;;;;;;;;;;;;;;-0.48;59.34;98643.09;4966849;28;19925;-79
2023/12/03 09:57:27;;;;;;;;;;;;;;;-0.63;58.57;98648.81;4967681;28;19997;-78
2023/12/03 10:00:18;;;;;;;;;;;;;;;-0.92;59.07;98639.63;4969529;28;19929;-79
2023/12/03 10:03:08;;;;;;;;;;;;;;;-0.77;59.74;98635.81;4968663;28;19918;-77
2023/12/03 10:05:56;;;;;;;;;;;;;;;-0.70;60.13;98637.34;4969049;28;19937;-78
2023/12/03 10:08:44;;;;;;;;;;;;;;;-0.55;59.51;98632.47;4967421;28;19918;-75
2023/12/03 10:11:34;;;;;;;;;;;;;;;-0.31;58.73;98628.13;4969442;28;19922;-79
2023/12/03 10:14:24;;;;;;;;;;;;;;;-0.06;58.43;98630.66;4969657;28;19918;-81
2023/12/03 10:17:19;;;;;;;;;;;;;;;-0.09;58.65;98628.47;4971607;28;20013;-81
2023/12/03 10:20:26;;;;;;;;;;;;;;;0.06;58.03;98625.41;4967771;28;20004;-78
2023/12/03 10:23:16;;;;;;;;;;;;;;;0.28;57.98;98627.59;4963063;28;20076;-80
2023/12/03 10:26:11;;;;;;;;;;;;;;;0.04;56.83;98632.00;4968585;28;19934;-79
2023/12/03 10:29:25;;;;;;;;;;;;;;;-0.18;57.92;98629.81;4969046;28;19930;-80
2023/12/03 10:32:13;;;;;;;;;;;;;;;-0.20;57.78;98626.56;4961724;28;20019;-78
2023/12/03 10:35:06;;;;;;;;;;;;;;;-0.11;57.79;98622.50;4971767;28;19925;-78
2023/12/03 10:37:54;;;;;;;;;;;;;;;0.07;57.63;98627.03;4969636;28;19925;-78
2023/12/03 10:47:08;;;;;;;;;;;;;;;0.33;57.42;98625.84;4966268;28;19918;-80
2023/12/03 10:50:22;;;;;;;;;;;;;;;0.29;57.24;98635.38;4966659;28;19925;-78
2023/12/03 10:53:12;;;;;;;;;;;;;;;0.54;56.75;98632.53;4963169;28;19953;-80
2023/12/03 10:56:01;;;;;;;;;;;;;;;0.51;57.72;98635.66;4968638;28;19922;-79
2023/12/03 10:58:50;;;;;;;;;;;;;;;0.38;57.57;98638.53;4970233;28;19918;-80
2023/12/03 11:01:39;;;;;;;;;;;;;;;0.39;57.75;98643.66;4967867;28;19957;-78
2023/12/03 11:04:35;;;;;;;;;;;;;;;0.24;57.61;98637.91;4967565;28;20009;-79
2023/12/03 11:07:23;;;;;;;;;;;;;;;0.25;57.11;98631.50;4965035;28;20849;-77
2023/12/03 11:10:16;;;;;;;;;;;;;;;-0.10;57.44;98632.19;4972135;28;19953;-81
2023/12/03 11:19:58;;;;;;;;;;;;;;;0.15;58.05;98628.56;4969761;28;19918;-81
2023/12/03 11:23:08;;;;;;;;;;;;;;;-0.08;58.10;98637.28;4965203;28;19976;-76
2023/12/03 11:26:01;;;;;;;;;;;;;;;-0.08;59.10;98637.28;4966802;28;19919;-78
2023/12/03 11:29:14;;;;;;;;;;;;;;;0.10;58.38;98636.44;4953430;28;19929;-79
2023/12/03 11:32:54;;;;;;;;;;;;;;;0.24;57.13;98632.56;4966770;28;20610;-79
2023/12/03 11:35:47;;;;;;;;;;;;;;;0.72;56.70;98628.97;4967439;28;19931;-79
2023/12/03 11:39:02;;;;;;;;;;;;;;;0.32;56.65;98629.56;4964301;28;20193;-79
2023/12/03 11:42:17;;;;;;;;;;;;;;;0.22;57.13;98626.63;4963051;28;20324;-79
2023/12/03 11:45:19;;;;;;;;;;;;;;;0.39;57.10;98618.78;4964254;28;19938;-79
2023/12/03 11:48:09;;;;;;;;;;;;;;;0.34;56.98;98610.63;4971335;28;20002;-79
2023/12/03 11:50:58;;;;;;;;;;;;;;;0.54;56.95;98610.34;4969172;28;19922;-79
2023/12/03 11:54:11;;;;;;;;;;;;;;;0.52;57.59;98607.88;4966570;28;20021;-80
2023/12/03 11:57:02;;;;;;;;;;;;;;;0.16;57.65;98608.81;4968677;28;19926;-78
2023/12/03 11:59:52;;;;;;;;;;;;;;;0.23;57.66;98604.22;4969811;28;19929;-79
2023/12/03 12:02:41;;;;;;;;;;;;;;;0.11;57.61;98601.50;4972361;28;19947;-77
2023/12/03 12:05:30;;;;;;;;;;;;;;;0.23;56.59;98593.50;4963787;28;19965;-79
2023/12/03 12:08:19;;;;;;;;;;;;;;;0.50;57.04;98602.78;4962887;28;19926;-77
2023/12/03 12:11:08;;;;;;;;;;;;;;;0.35;58.17;98602.38;4966119;28;19923;-82
2023/12/03 12:13:58;;;;;;;;;;;;;;;0.77;57.11;98605.03;4967765;28;20391;-80
2023/12/03 12:20:00;;;;;;;;;;;;;;;0.62;56.72;98596.63;4971699;28;19953;-78
2023/12/03 12:23:00;;;;;;;;;;;;;;;0.85;56.28;98590.47;4962089;28;19926;-79
2023/12/03 12:25:48;;;;;;;;;;;;;;;0.94;56.30;98595.25;4968716;28;20064;-78
2023/12/03 12:29:02;;;;;;;;;;;;;;;0.76;56.79;98592.69;4957240;28;20001;-80
2023/12/03 12:32:17;;;;;;;;;;;;;;;0.81;56.31;98602.72;4964235;28;19937;-79
2023/12/03 12:35:07;;;;;;;;;;;;;;;0.73;56.30;98604.66;4968243;28;19922;-80
2023/12/03 12:38:01;;;;;;;;;;;;;;;0.51;56.60;98596.38;4971209;28;19934;-79
2023/12/03 12:44:07;;;;;;;;;;;;;;;0.89;55.54;98587.13;4979351;28;19922;-79
2023/12/03 12:47:20;;;;;;;;;;;;;;;0.76;56.28;98584.69;4968678;28;19929;-79
2023/12/03 12:50:34;;;;;;;;;;;;;;;1.08;56.25;98595.03;4971258;28;19932;-78
2023/12/03 12:53:24;;;;;;;;;;;;;;;1.04;56.09;98594.69;4969784;28;19929;-77
2023/12/03 12:59:29;;;;;;;;;;;;;;;0.66;57.58;98589.78;4968481;28;20304;-79
2023/12/03 13:02:42;;;;;;;;;;;;;;;1.01;56.58;98589.78;4968779;28;20074;-79
2023/12/03 13:05:31;;;;;;;;;;;;;;;0.99;56.46;98587.34;4962990;28;19934;-78
2023/12/03 13:08:19;;;;;;;;;;;;;;;0.75;56.54;98596.44;4963749;28;20388;-77
2023/12/03 13:11:09;;;;;;;;;;;;;;;0.69;56.86;98598.16;4952320;28;19929;-79
2023/12/03 13:17:34;;;;;;;;;;;;;;;0.59;57.81;98594.44;4952604;28;19922;-82
2023/12/03 13:20:23;;;;;;;;;;;;;;;0.73;57.32;98599.31;4961101;28;19922;-80
2023/12/03 13:23:11;;;;;;;;;;;;;;;0.68;57.55;98593.84;4974827;28;20288;-79
2023/12/03 13:25:59;;;;;;;;;;;;;;;0.76;57.44;98585.50;4961436;28;20253;-80
2023/12/03 13:32:07;;;;;;;;;;;;;;;1.00;56.47;98588.97;4954903;28;20386;-79
2023/12/03 13:34:56;;;;;;;;;;;;;;;1.14;56.06;98594.09;4955536;28;20389;-82
2023/12/03 13:37:44;;;;;;;;;;;;;;;1.23;55.26;98582.00;4967920;28;20387;-78
2023/12/03 13:40:32;;;;;;;;;;;;;;;1.26;55.82;98586.88;4958905;28;19950;-81
2023/12/03 13:43:20;;;;;;;;;;;;;;;1.21;56.38;98589.44;4973476;28;19933;-78
2023/12/03 13:46:10;;;;;;;;;;;;;;;1.11;56.50;98584.66;4971420;28;20384;-78
2023/12/03 13:49:00;;;;;;;;;;;;;;;0.97;56.30;98589.47;4974537;28;19922;-81
2023/12/03 13:51:48;;;;;;;;;;;;;;;1.00;57.03;98582.81;4969994;28;20049;-78
2023/12/03 13:54:38;;;;;;;;;;;;;;;1.12;56.50;98580.97;4968601;28;20323;-78
2023/12/03 13:57:27;;;;;;;;;;;;;;;1.04;56.24;98579.44;4971007;28;19922;-79
2023/12/03 14:00:16;;;;;;;;;;;;;;;1.03;56.31;98582.34;4963886;28;20353;-80
2023/12/03 14:03:07;;;;;;;;;;;;;;;1.16;56.12;98582.09;4968821;28;19929;-79
2023/12/03 14:05:57;;;;;;;;;;;;;;;0.74;57.49;98578.72;4972012;28;20025;-79
2023/12/03 14:08:45;;;;;;;;;;;;;;;0.84;57.59;98583.50;4969126;28;19922;-79
2023/12/03 14:11:33;;;;;;;;;;;;;;;0.94;57.42;98589.09;4970422;28;20280;-79
2023/12/03 14:14:21;;;;;;;;;;;;;;;0.92;57.11;98591.19;4971096;28;20183;-80
2023/12/03 14:17:14;;;;;;;;;;;;;;;0.96;57.28;98592.34;4968304;28;20431;-80
2023/12/03 14:20:04;;;;;;;;;;;;;;;0.98;57.88;98588.41;4969959;28;20478;-80
2023/12/03 14:22:54;;;;;;;;;;;;;;;0.87;57.48;98596.44;4969155;28;20021;-78
2023/12/03 14:25:42;;;;;;;;;;;;;;;0.54;57.55;98596.97;4954310;28;20008;-79
2023/12/03 14:28:55;;;;;;;;;;;;;;;0.77;58.39;98602.34;4966582;28;20053;-80
2023/12/03 14:32:07;;;;;;;;;;;;;;;0.78;58.14;98596.75;4952876;28;19922;-82
2023/12/03 14:34:55;;;;;;;;;;;;;;;0.75;57.85;98601.78;4972278;28;20015;-81
2023/12/03 14:37:49;;;;;;;;;;;;;;;0.79;57.70;98602.91;4966577;28;20275;-79
2023/12/03 14:40:37;;;;;;;;;;;;;;;0.74;58.16;98595.59;4957687;28;20392;-77
2023/12/03 14:43:52;;;;;;;;;;;;;;;0.87;57.93;98594.56;4967724;28;19930;-79
2023/12/03 14:46:40;;;;;;;;;;;;;;;0.81;58.16;98594.69;4966535;28;20287;-80
2023/12/03 14:49:29;;;;;;;;;;;;;;;1.02;57.67;98597.59;4971779;28;19922;-80
2023/12/03 14:52:18;;;;;;;;;;;;;;;0.84;57.15;98592.34;4956472;28;20012;-82
2023/12/03 14:55:09;;;;;;;;;;;;;;;0.75;57.77;98601.78;4973183;28;19922;-79
2023/12/03 14:58:00;;;;;;;;;;;;;;;0.75;57.13;98594.56;4964012;28;19922;-80
2023/12/03 15:00:49;;;;;;;;;;;;;;;0.89;57.85;98597.81;4961197;28;20316;-80
2023/12/03 15:03:39;;;;;;;;;;;;;;;0.88;58.04;98604.22;4964653;28;20012;-78
2023/12/03 15:06:29;;;;;;;;;;;;;;;0.92;57.70;98602.72;4971574;28;19998;-79
2023/12/03 15:09:17;;;;;;;;;;;;;;;0.64;58.59;98599.88;4968942;28;19988;-80
2023/12/03 15:12:07;;;;;;;;;;;;;;;0.58;58.73;98600.78;4971715;28;20387;-81
2023/12/03 15:14:55;;;;;;;;;;;;;;;0.64;58.82;98610.56;4969744;28;19977;-79
2023/12/03 15:17:43;;;;;;;;;;;;;;;0.58;59.61;98603.47;4971441;28;20435;-78
2023/12/03 15:20:32;;;;;;;;;;;;;;;0.43;59.90;98603.94;4970140;28;20327;-78
2023/12/03 15:23:20;;;;;;;;;;;;;;;0.52;59.97;98614.03;4970109;28;19926;-79
2023/12/03 15:26:09;;;;;;;;;;;;;;;0.49;60.10;98614.50;4969652;28;20312;-80
2023/12/03 15:29:22;;;;;;;;;;;;;;;0.17;60.81;98616.63;4967634;28;19930;-78
2023/12/03 15:33:01;;;;;;;;;;;;;;;0.33;60.72;98619.69;4970593;28;19922;-77
2023/12/03 15:35:52;;;;;;;;;;;;;;;0.34;60.71;98613.31;4958550;28;19922;-77
2023/12/03 15:45:55;;;;;;;;;;;;;;;0.41;60.75;98612.16;4957319;28;19926;-79
2023/12/03 15:48:44;;;;;;;;;;;;;;;0.64;60.11;98614.09;4968719;28;19937;-77
2023/12/03 15:51:34;;;;;;;;;;;;;;;0.63;59.94;98616.97;4968303;28;19922;-77
2023/12/03 15:54:27;;;;;;;;;;;;;;;0.57;60.52;98612.53;4957605;28;19926;-78
2023/12/03 15:57:16;;;;;;;;;;;;;;;0.51;60.38;98607.06;4967886;28;19926;-78
2023/12/03 16:00:07;;;;;;;;;;;;;;;0.50;60.56;98610.78;4964833;28;19922;-79
2023/12/03 16:02:59;;;;;;;;;;;;;;;0.41;61.36;98609.47;4964989;28;19926;-78
2023/12/03 16:05:48;;;;;;;;;;;;;;;0.39;61.17;98616.91;4967449;28;20275;-78
2023/12/03 16:08:38;;;;;;;;;;;;;;;0.38;61.08;98620.66;4959845;28;19929;-80
2023/12/03 16:11:28;;;;;;;;;;;;;;;0.37;61.32;98624.34;4969665;28;19930;-79
2023/12/03 16:14:18;;;;;;;;;;;;;;;0.38;61.12;98617.97;4955176;28;19934;-78
2023/12/03 16:17:11;;;;;;;;;;;;;;;0.52;60.67;98619.38;4954287;28;19930;-79
2023/12/03 16:20:08;;;;;;;;;;;;;;;0.58;60.46;98623.00;4957273;28;19934;-80
2023/12/03 16:22:57;;;;;;;;;;;;;;;0.43;60.98;98628.78;4962634;28;20320;-78
2023/12/03 16:32:13;;;;;;;;;;;;;;;0.51;60.71;98627.63;4966968;28;20013;-80
2023/12/03 16:35:04;;;;;;;;;;;;;;;0.49;60.83;98633.22;4969740;28;19952;-81
2023/12/03 16:37:54;;;;;;;;;;;;;;;0.65;60.18;98628.28;4967135;28;19930;-78
2023/12/03 16:41:07;;;;;;;;;;;;;;;0.44;60.77;98626.94;4966818;28;19922;-78
2023/12/03 16:44:02;;;;;;;;;;;;;;;0.05;62.19;98622.94;4964315;28;19922;-78
2023/12/03 16:46:51;;;;;;;;;;;;;;;-0.07;62.63;98626.38;4955596;28;19953;-78
2023/12/03 16:49:42;;;;;;;;;;;;;;;-0.10;62.79;98626.84;4952396;28;19984;-78
2023/12/03 16:52:30;;;;;;;;;;;;;;;0.06;62.50;98625.41;4962486;28;19974;-78
2023/12/03 16:55:19;;;;;;;;;;;;;;;0.10;62.46;98623.88;4970874;28;20288;-79
2023/12/03 16:58:07;;;;;;;;;;;;;;;-0.12;63.57;98626.22;4958651;28;19922;-80
2023/12/03 17:00:57;;;;;;;;;;;;;;;-0.12;63.18;98620.88;4971455;28;19949;-79